Main page
Satellite images 15-day forecastsClimateMarine weather Cyclones Lightning AirportsFAQ Newsletter About
Weather : Europe Africa North America South America Asia Australia-Oceania Others
Languages Contact

Doha, Qatar

latitude: 25-15N, longitude: 051-34E, elevation: 11 m


METAR: OTBD 311330Z 09007KT CAVOK 31/23 Q1010 NOSIG
TAF: OTBD 311042Z 3112/0118 10009KT CAVOK PROB30 TEMPO 3112/3116 8000 FEW030 SCT100 BECMG 0102/0104 17009KT

Time: 16:58 (13:58 UTC)

Current weather observation

The report was made 28 minutes ago, at 13:30 UTC
Wind 7 kt from the East
Temperature 31°C
Humidity 63%
Pressure 1010 hPa
Visibility 10 km or more
no clouds below 1500 m and no cumulonimbus

Change units

Forecast

The report was made 3 hours and 16 minutes ago, at 10:42 UTC
Forecast valid from 31 at 12 UTC to 01 at 18 UTC
Wind 9 kt from the East
Visibility 10 km or more
no clouds below 1500 m and no cumulonimbus
Probability 30% :
Temporary
from 31 at 12 UTC to 31 at 16 UTC
Visibility: 8000 m
Few clouds at a height of 3000 ft
Scattered clouds at a height of 10000 ft
Becoming
from 01 at 02 UTC to 01 at 04 UTC
Wind 9 kt from the South
The information on this site is subject to a disclaimer
Weather : Europe Africa North America South America Asia Australia-Oceania Others
Satellite images 15-day forecastsClimateMarine weather Cyclones Lightning AirportsFAQ Languages Contact Newsletter About